sensor_id;sensor_type;location;lat;lon;timestamp;P1;durP1;ratioP1;P2;durP2;ratioP2
45909;SDS011;31622;55.416;37.840;2022-12-22T00:00:44;0.90;;;0.60;;
45909;SDS011;31622;55.416;37.840;2022-12-22T00:03:28;2.38;;;0.55;;
45909;SDS011;31622;55.416;37.840;2022-12-22T00:06:13;0.70;;;0.52;;
45909;SDS011;31622;55.416;37.840;2022-12-22T00:08:57;1.10;;;0.55;;
45909;SDS011;31622;55.416;37.840;2022-12-22T00:11:41;0.70;;;0.40;;
45909;SDS011;31622;55.416;37.840;2022-12-22T00:14:25;0.77;;;0.40;;
45909;SDS011;31622;55.416;37.840;2022-12-22T00:17:16;0.75;;;0.45;;
45909;SDS011;31622;55.416;37.840;2022-12-22T00:20:13;0.65;;;0.40;;
45909;SDS011;31622;55.416;37.840;2022-12-22T00:22:58;0.73;;;0.40;;
45909;SDS011;31622;55.416;37.840;2022-12-22T00:25:43;1.00;;;0.40;;
45909;SDS011;31622;55.416;37.840;2022-12-22T00:28:27;1.17;;;0.60;;
45909;SDS011;31622;55.416;37.840;2022-12-22T00:31:12;0.85;;;0.43;;
45909;SDS011;31622;55.416;37.840;2022-12-22T00:33:56;1.20;;;0.50;;
45909;SDS011;31622;55.416;37.840;2022-12-22T00:36:41;0.90;;;0.50;;
45909;SDS011;31622;55.416;37.840;2022-12-22T00:39:25;1.17;;;0.50;;
45909;SDS011;31622;55.416;37.840;2022-12-22T00:42:09;1.33;;;0.63;;
45909;SDS011;31622;55.416;37.840;2022-12-22T00:44:54;0.85;;;0.40;;
45909;SDS011;31622;55.416;37.840;2022-12-22T00:47:38;1.67;;;0.60;;
45909;SDS011;31622;55.416;37.840;2022-12-22T00:50:25;1.40;;;0.70;;
45909;SDS011;31622;55.416;37.840;2022-12-22T00:53:13;0.90;;;0.50;;
45909;SDS011;31622;55.416;37.840;2022-12-22T00:55:57;0.95;;;0.50;;
45909;SDS011;31622;55.416;37.840;2022-12-22T00:58:41;1.20;;;0.60;;
45909;SDS011;31622;55.416;37.840;2022-12-22T01:01:26;0.82;;;0.50;;
45909;SDS011;31622;55.416;37.840;2022-12-22T01:04:10;0.85;;;0.50;;
45909;SDS011;31622;55.416;37.840;2022-12-22T01:06:55;1.10;;;0.60;;
45909;SDS011;31622;55.416;37.840;2022-12-22T01:09:39;1.00;;;0.52;;
45909;SDS011;31622;55.416;37.840;2022-12-22T01:12:26;8.15;;;0.90;;
45909;SDS011;31622;55.416;37.840;2022-12-22T01:15:11;0.88;;;0.45;;
45909;SDS011;31622;55.416;37.840;2022-12-22T01:17:59;1.30;;;0.50;;
45909;SDS011;31622;55.416;37.840;2022-12-22T01:20:44;1.17;;;0.50;;
45909;SDS011;31622;55.416;37.840;2022-12-22T01:23:28;1.10;;;0.50;;
45909;SDS011;31622;55.416;37.840;2022-12-22T01:26:12;0.80;;;0.47;;
45909;SDS011;31622;55.416;37.840;2022-12-22T01:28:56;1.00;;;0.50;;
45909;SDS011;31622;55.416;37.840;2022-12-22T01:31:41;0.80;;;0.40;;
45909;SDS011;31622;55.416;37.840;2022-12-22T01:34:25;1.02;;;0.50;;
45909;SDS011;31622;55.416;37.840;2022-12-22T01:37:09;0.80;;;0.40;;
45909;SDS011;31622;55.416;37.840;2022-12-22T01:39:53;0.38;;;0.20;;
45909;SDS011;31622;55.416;37.840;2022-12-22T01:42:38;0.75;;;0.30;;
45909;SDS011;31622;55.416;37.840;2022-12-22T01:45:26;0.52;;;0.30;;
45909;SDS011;31622;55.416;37.840;2022-12-22T01:51:04;0.50;;;0.30;;
45909;SDS011;31622;55.416;37.840;2022-12-22T01:53:50;0.45;;;0.28;;
45909;SDS011;31622;55.416;37.840;2022-12-22T01:56:35;0.60;;;0.20;;
45909;SDS011;31622;55.416;37.840;2022-12-22T01:59:20;0.57;;;0.30;;
45909;SDS011;31622;55.416;37.840;2022-12-22T02:02:05;0.40;;;0.30;;
45909;SDS011;31622;55.416;37.840;2022-12-22T02:04:49;0.60;;;0.30;;
45909;SDS011;31622;55.416;37.840;2022-12-22T02:08:12;0.55;;;0.30;;
45909;SDS011;31622;55.416;37.840;2022-12-22T02:14:45;0.50;;;0.38;;
45909;SDS011;31622;55.416;37.840;2022-12-22T02:17:50;0.43;;;0.25;;
45909;SDS011;31622;55.416;37.840;2022-12-22T02:20:52;0.60;;;0.40;;
45909;SDS011;31622;55.416;37.840;2022-12-22T02:23:51;0.40;;;0.25;;
45909;SDS011;31622;55.416;37.840;2022-12-22T02:27:14;0.63;;;0.38;;
45909;SDS011;31622;55.416;37.840;2022-12-22T02:30:01;0.50;;;0.30;;
45909;SDS011;31622;55.416;37.840;2022-12-22T02:32:48;0.60;;;0.32;;
45909;SDS011;31622;55.416;37.840;2022-12-22T02:50:36;0.35;;;0.20;;
45909;SDS011;31622;55.416;37.840;2022-12-22T02:53:27;0.57;;;0.30;;
45909;SDS011;31622;55.416;37.840;2022-12-22T02:56:12;0.50;;;0.35;;
45909;SDS011;31622;55.416;37.840;2022-12-22T02:58:56;0.45;;;0.28;;
45909;SDS011;31622;55.416;37.840;2022-12-22T03:01:42;1.02;;;0.40;;
45909;SDS011;31622;55.416;37.840;2022-12-22T03:04:27;0.60;;;0.30;;
45909;SDS011;31622;55.416;37.840;2022-12-22T03:07:12;1.98;;;0.40;;
45909;SDS011;31622;55.416;37.840;2022-12-22T03:09:56;0.82;;;0.30;;
45909;SDS011;31622;55.416;37.840;2022-12-22T03:12:40;0.50;;;0.30;;
45909;SDS011;31622;55.416;37.840;2022-12-22T03:15:24;0.93;;;0.40;;
45909;SDS011;31622;55.416;37.840;2022-12-22T03:18:09;2.38;;;0.40;;
45909;SDS011;31622;55.416;37.840;2022-12-22T03:20:54;0.60;;;0.40;;
45909;SDS011;31622;55.416;37.840;2022-12-22T03:23:39;1.10;;;0.40;;
45909;SDS011;31622;55.416;37.840;2022-12-22T03:26:23;0.40;;;0.30;;
45909;SDS011;31622;55.416;37.840;2022-12-22T03:28:50;1.13;;;0.50;;
45909;SDS011;31622;55.416;37.840;2022-12-22T03:31:16;0.60;;;0.35;;
45909;SDS011;31622;55.416;37.840;2022-12-22T03:33:41;0.80;;;0.50;;
45909;SDS011;31622;55.416;37.840;2022-12-22T03:36:07;2.22;;;0.50;;
45909;SDS011;31622;55.416;37.840;2022-12-22T03:38:33;0.65;;;0.40;;
45909;SDS011;31622;55.416;37.840;2022-12-22T03:40:59;0.75;;;0.47;;
45909;SDS011;31622;55.416;37.840;2022-12-22T03:43:25;0.73;;;0.50;;
45909;SDS011;31622;55.416;37.840;2022-12-22T03:46:10;0.30;;;0.30;;
45909;SDS011;31622;55.416;37.840;2022-12-22T03:48:56;1.10;;;0.40;;
45909;SDS011;31622;55.416;37.840;2022-12-22T03:51:35;0.82;;;0.55;;
45909;SDS011;31622;55.416;37.840;2022-12-22T03:54:12;1.30;;;0.60;;
45909;SDS011;31622;55.416;37.840;2022-12-22T03:56:39;0.93;;;0.50;;
45909;SDS011;31622;55.416;37.840;2022-12-22T03:59:05;0.65;;;0.40;;
45909;SDS011;31622;55.416;37.840;2022-12-22T04:01:31;1.35;;;0.60;;
45909;SDS011;31622;55.416;37.840;2022-12-22T04:03:58;1.50;;;0.60;;
45909;SDS011;31622;55.416;37.840;2022-12-22T04:06:23;0.68;;;0.50;;
45909;SDS011;31622;55.416;37.840;2022-12-22T04:08:49;1.02;;;0.47;;
45909;SDS011;31622;55.416;37.840;2022-12-22T04:11:16;0.77;;;0.55;;
45909;SDS011;31622;55.416;37.840;2022-12-22T04:14:00;0.95;;;0.50;;
45909;SDS011;31622;55.416;37.840;2022-12-22T04:16:27;0.90;;;0.50;;
45909;SDS011;31622;55.416;37.840;2022-12-22T04:18:52;0.85;;;0.60;;
45909;SDS011;31622;55.416;37.840;2022-12-22T04:21:18;1.25;;;0.77;;
45909;SDS011;31622;55.416;37.840;2022-12-22T04:23:44;2.38;;;0.73;;
45909;SDS011;31622;55.416;37.840;2022-12-22T04:26:09;2.10;;;0.77;;
45909;SDS011;31622;55.416;37.840;2022-12-22T04:28:35;1.00;;;0.60;;
45909;SDS011;31622;55.416;37.840;2022-12-22T04:31:01;1.65;;;0.80;;
45909;SDS011;31622;55.416;37.840;2022-12-22T04:33:26;2.30;;;0.68;;
45909;SDS011;31622;55.416;37.840;2022-12-22T04:35:52;1.50;;;0.65;;
45909;SDS011;31622;55.416;37.840;2022-12-22T04:38:18;2.42;;;0.80;;
45909;SDS011;31622;55.416;37.840;2022-12-22T04:40:43;1.23;;;0.70;;
45909;SDS011;31622;55.416;37.840;2022-12-22T04:43:09;1.50;;;1.00;;
45909;SDS011;31622;55.416;37.840;2022-12-22T04:45:35;1.30;;;0.80;;
45909;SDS011;31622;55.416;37.840;2022-12-22T04:48:00;2.70;;;0.80;;
45909;SDS011;31622;55.416;37.840;2022-12-22T04:50:26;2.25;;;1.40;;
45909;SDS011;31622;55.416;37.840;2022-12-22T04:52:52;2.05;;;1.48;;
45909;SDS011;31622;55.416;37.840;2022-12-22T04:55:17;3.17;;;1.63;;
45909;SDS011;31622;55.416;37.840;2022-12-22T04:57:44;3.00;;;1.42;;
45909;SDS011;31622;55.416;37.840;2022-12-22T05:00:09;4.45;;;1.70;;
45909;SDS011;31622;55.416;37.840;2022-12-22T05:02:35;3.50;;;1.63;;
45909;SDS011;31622;55.416;37.840;2022-12-22T05:05:01;3.70;;;1.63;;
45909;SDS011;31622;55.416;37.840;2022-12-22T05:07:27;4.13;;;1.40;;
45909;SDS011;31622;55.416;37.840;2022-12-22T05:09:53;4.60;;;1.80;;
45909;SDS011;31622;55.416;37.840;2022-12-22T05:12:19;3.88;;;1.73;;
45909;SDS011;31622;55.416;37.840;2022-12-22T05:15:03;4.05;;;1.50;;
45909;SDS011;31622;55.416;37.840;2022-12-22T05:17:29;3.55;;;1.38;;
45909;SDS011;31622;55.416;37.840;2022-12-22T05:19:55;3.20;;;1.80;;
45909;SDS011;31622;55.416;37.840;2022-12-22T05:22:20;2.95;;;1.77;;
45909;SDS011;31622;55.416;37.840;2022-12-22T05:24:46;3.28;;;1.80;;
45909;SDS011;31622;55.416;37.840;2022-12-22T05:27:12;3.78;;;1.80;;
45909;SDS011;31622;55.416;37.840;2022-12-22T05:29:37;4.38;;;1.60;;
45909;SDS011;31622;55.416;37.840;2022-12-22T05:32:03;3.08;;;1.90;;
45909;SDS011;31622;55.416;37.840;2022-12-22T05:34:29;5.35;;;1.85;;
45909;SDS011;31622;55.416;37.840;2022-12-22T05:36:54;4.38;;;1.90;;
45909;SDS011;31622;55.416;37.840;2022-12-22T05:39:20;3.80;;;1.83;;
45909;SDS011;31622;55.416;37.840;2022-12-22T05:41:46;4.68;;;2.50;;
45909;SDS011;31622;55.416;37.840;2022-12-22T05:44:11;3.08;;;1.88;;
45909;SDS011;31622;55.416;37.840;2022-12-22T05:46:37;5.00;;;2.10;;
45909;SDS011;31622;55.416;37.840;2022-12-22T05:49:03;3.53;;;2.13;;
45909;SDS011;31622;55.416;37.840;2022-12-22T05:51:29;3.95;;;2.78;;
45909;SDS011;31622;55.416;37.840;2022-12-22T05:53:54;5.30;;;2.95;;
45909;SDS011;31622;55.416;37.840;2022-12-22T05:56:20;5.00;;;3.00;;
45909;SDS011;31622;55.416;37.840;2022-12-22T05:58:46;5.05;;;3.25;;
45909;SDS011;31622;55.416;37.840;2022-12-22T06:01:11;5.22;;;3.63;;
45909;SDS011;31622;55.416;37.840;2022-12-22T06:03:37;5.25;;;3.90;;
45909;SDS011;31622;55.416;37.840;2022-12-22T06:06:03;5.20;;;3.75;;
45909;SDS011;31622;55.416;37.840;2022-12-22T06:08:29;8.18;;;4.20;;
45909;SDS011;31622;55.416;37.840;2022-12-22T06:10:55;6.22;;;4.30;;
45909;SDS011;31622;55.416;37.840;2022-12-22T06:13:22;6.53;;;4.55;;
45909;SDS011;31622;55.416;37.840;2022-12-22T06:15:48;6.28;;;4.47;;
45909;SDS011;31622;55.416;37.840;2022-12-22T06:18:14;6.07;;;4.57;;
45909;SDS011;31622;55.416;37.840;2022-12-22T06:20:40;6.63;;;4.70;;
45909;SDS011;31622;55.416;37.840;2022-12-22T06:23:05;5.45;;;4.25;;
45909;SDS011;31622;55.416;37.840;2022-12-22T06:25:31;9.25;;;4.82;;
45909;SDS011;31622;55.416;37.840;2022-12-22T06:27:57;5.68;;;4.32;;
45909;SDS011;31622;55.416;37.840;2022-12-22T06:30:23;6.97;;;4.82;;
45909;SDS011;31622;55.416;37.840;2022-12-22T06:32:48;8.48;;;4.68;;
45909;SDS011;31622;55.416;37.840;2022-12-22T06:35:14;7.07;;;4.55;;
45909;SDS011;31622;55.416;37.840;2022-12-22T06:37:40;5.40;;;4.43;;
45909;SDS011;31622;55.416;37.840;2022-12-22T06:40:06;6.57;;;4.30;;
45909;SDS011;31622;55.416;37.840;2022-12-22T06:42:32;7.70;;;4.47;;
45909;SDS011;31622;55.416;37.840;2022-12-22T06:45:17;5.97;;;4.03;;
45909;SDS011;31622;55.416;37.840;2022-12-22T06:47:42;5.47;;;3.90;;
45909;SDS011;31622;55.416;37.840;2022-12-22T06:50:08;10.80;;;4.82;;
45909;SDS011;31622;55.416;37.840;2022-12-22T06:52:34;12.52;;;4.07;;
45909;SDS011;31622;55.416;37.840;2022-12-22T06:55:00;13.80;;;4.32;;
45909;SDS011;31622;55.416;37.840;2022-12-22T06:57:26;6.72;;;4.25;;
45909;SDS011;31622;55.416;37.840;2022-12-22T06:59:53;10.77;;;3.80;;
45909;SDS011;31622;55.416;37.840;2022-12-22T07:02:18;10.25;;;3.97;;
45909;SDS011;31622;55.416;37.840;2022-12-22T07:04:44;8.38;;;4.07;;
45909;SDS011;31622;55.416;37.840;2022-12-22T07:07:10;7.85;;;3.72;;
45909;SDS011;31622;55.416;37.840;2022-12-22T07:09:36;7.85;;;4.18;;
45909;SDS011;31622;55.416;37.840;2022-12-22T07:12:01;8.60;;;4.43;;
45909;SDS011;31622;55.416;37.840;2022-12-22T07:14:27;4.35;;;3.15;;
45909;SDS011;31622;55.416;37.840;2022-12-22T07:16:53;7.15;;;3.30;;
45909;SDS011;31622;55.416;37.840;2022-12-22T07:19:19;7.50;;;3.63;;
45909;SDS011;31622;55.416;37.840;2022-12-22T07:21:44;6.05;;;3.72;;
45909;SDS011;31622;55.416;37.840;2022-12-22T07:24:12;6.28;;;3.40;;
45909;SDS011;31622;55.416;37.840;2022-12-22T07:26:37;6.13;;;3.50;;
45909;SDS011;31622;55.416;37.840;2022-12-22T07:29:03;4.88;;;3.08;;
45909;SDS011;31622;55.416;37.840;2022-12-22T07:31:29;7.43;;;3.38;;
45909;SDS011;31622;55.416;37.840;2022-12-22T07:33:55;6.20;;;3.25;;
45909;SDS011;31622;55.416;37.840;2022-12-22T07:36:21;6.45;;;3.53;;
45909;SDS011;31622;55.416;37.840;2022-12-22T07:38:47;5.88;;;3.00;;
45909;SDS011;31622;55.416;37.840;2022-12-22T07:41:14;5.38;;;3.20;;
45909;SDS011;31622;55.416;37.840;2022-12-22T07:44:00;4.25;;;3.13;;
45909;SDS011;31622;55.416;37.840;2022-12-22T07:46:27;4.90;;;3.10;;
45909;SDS011;31622;55.416;37.840;2022-12-22T07:48:54;5.50;;;3.00;;
45909;SDS011;31622;55.416;37.840;2022-12-22T07:51:39;4.22;;;3.22;;
45909;SDS011;31622;55.416;37.840;2022-12-22T07:54:10;4.45;;;3.15;;
45909;SDS011;31622;55.416;37.840;2022-12-22T07:56:38;6.68;;;2.97;;
45909;SDS011;31622;55.416;37.840;2022-12-22T07:59:04;4.10;;;2.92;;
45909;SDS011;31622;55.416;37.840;2022-12-22T08:01:30;5.28;;;2.60;;
45909;SDS011;31622;55.416;37.840;2022-12-22T08:03:56;5.53;;;3.00;;
45909;SDS011;31622;55.416;37.840;2022-12-22T08:06:22;4.28;;;2.70;;
45909;SDS011;31622;55.416;37.840;2022-12-22T08:08:48;4.82;;;3.00;;
45909;SDS011;31622;55.416;37.840;2022-12-22T08:11:15;4.38;;;2.90;;
45909;SDS011;31622;55.416;37.840;2022-12-22T08:13:41;3.53;;;2.72;;
45909;SDS011;31622;55.416;37.840;2022-12-22T08:16:09;4.15;;;2.72;;
45909;SDS011;31622;55.416;37.840;2022-12-22T08:18:36;4.35;;;3.28;;
45909;SDS011;31622;55.416;37.840;2022-12-22T08:21:02;4.80;;;3.05;;
45909;SDS011;31622;55.416;37.840;2022-12-22T08:23:28;4.07;;;2.80;;
45909;SDS011;31622;55.416;37.840;2022-12-22T08:25:57;4.10;;;3.05;;
45909;SDS011;31622;55.416;37.840;2022-12-22T08:30:52;4.40;;;2.92;;
45909;SDS011;31622;55.416;37.840;2022-12-22T08:33:18;4.72;;;2.88;;
45909;SDS011;31622;55.416;37.840;2022-12-22T08:35:44;5.25;;;3.45;;
45909;SDS011;31622;55.416;37.840;2022-12-22T08:38:10;4.53;;;2.92;;
45909;SDS011;31622;55.416;37.840;2022-12-22T08:40:37;7.15;;;3.25;;
45909;SDS011;31622;55.416;37.840;2022-12-22T08:43:03;4.50;;;2.83;;
45909;SDS011;31622;55.416;37.840;2022-12-22T08:45:31;3.90;;;2.72;;
45909;SDS011;31622;55.416;37.840;2022-12-22T08:47:57;5.05;;;2.97;;
45909;SDS011;31622;55.416;37.840;2022-12-22T08:50:23;4.35;;;2.80;;
45909;SDS011;31622;55.416;37.840;2022-12-22T08:52:48;4.72;;;3.00;;
45909;SDS011;31622;55.416;37.840;2022-12-22T08:55:14;4.55;;;2.90;;
45909;SDS011;31622;55.416;37.840;2022-12-22T08:57:40;3.63;;;2.90;;
45909;SDS011;31622;55.416;37.840;2022-12-22T09:00:06;6.00;;;3.05;;
45909;SDS011;31622;55.416;37.840;2022-12-22T09:02:34;5.43;;;3.40;;
45909;SDS011;31622;55.416;37.840;2022-12-22T09:05:00;3.08;;;2.47;;
45909;SDS011;31622;55.416;37.840;2022-12-22T09:07:25;5.00;;;3.00;;
45909;SDS011;31622;55.416;37.840;2022-12-22T09:09:51;4.68;;;3.22;;
45909;SDS011;31622;55.416;37.840;2022-12-22T09:12:17;3.47;;;2.45;;
45909;SDS011;31622;55.416;37.840;2022-12-22T09:14:43;4.65;;;3.05;;
45909;SDS011;31622;55.416;37.840;2022-12-22T09:17:09;4.03;;;2.75;;
45909;SDS011;31622;55.416;37.840;2022-12-22T09:19:34;3.55;;;2.45;;
45909;SDS011;31622;55.416;37.840;2022-12-22T09:22:00;4.10;;;2.88;;
45909;SDS011;31622;55.416;37.840;2022-12-22T09:24:26;4.63;;;2.83;;
45909;SDS011;31622;55.416;37.840;2022-12-22T09:26:52;5.45;;;3.08;;
45909;SDS011;31622;55.416;37.840;2022-12-22T09:29:17;4.32;;;2.95;;
45909;SDS011;31622;55.416;37.840;2022-12-22T09:31:44;5.45;;;3.03;;
45909;SDS011;31622;55.416;37.840;2022-12-22T09:34:10;4.18;;;2.65;;
45909;SDS011;31622;55.416;37.840;2022-12-22T09:36:38;4.78;;;2.70;;
45909;SDS011;31622;55.416;37.840;2022-12-22T09:39:05;4.13;;;2.92;;
45909;SDS011;31622;55.416;37.840;2022-12-22T09:41:36;3.63;;;2.65;;
45909;SDS011;31622;55.416;37.840;2022-12-22T09:47:05;5.20;;;3.17;;
45909;SDS011;31622;55.416;37.840;2022-12-22T09:49:37;7.65;;;3.10;;
45909;SDS011;31622;55.416;37.840;2022-12-22T09:52:03;4.82;;;3.00;;
45909;SDS011;31622;55.416;37.840;2022-12-22T09:54:29;6.80;;;3.45;;
45909;SDS011;31622;55.416;37.840;2022-12-22T09:56:55;5.82;;;3.55;;
45909;SDS011;31622;55.416;37.840;2022-12-22T09:59:21;16.35;;;4.18;;
45909;SDS011;31622;55.416;37.840;2022-12-22T10:09:50;11.85;;;4.30;;
45909;SDS011;31622;55.416;37.840;2022-12-22T10:12:17;11.85;;;3.92;;
45909;SDS011;31622;55.416;37.840;2022-12-22T10:14:45;10.20;;;3.60;;
45909;SDS011;31622;55.416;37.840;2022-12-22T10:17:16;12.23;;;3.83;;
45909;SDS011;31622;55.416;37.840;2022-12-22T10:19:47;8.32;;;3.67;;
45909;SDS011;31622;55.416;37.840;2022-12-22T10:24:50;8.70;;;3.58;;
45909;SDS011;31622;55.416;37.840;2022-12-22T10:27:16;9.43;;;3.40;;
45909;SDS011;31622;55.416;37.840;2022-12-22T10:29:43;10.57;;;3.88;;
45909;SDS011;31622;55.416;37.840;2022-12-22T10:32:13;6.80;;;3.60;;
45909;SDS011;31622;55.416;37.840;2022-12-22T10:37:39;7.85;;;3.70;;
45909;SDS011;31622;55.416;37.840;2022-12-22T10:40:15;7.03;;;4.00;;
45909;SDS011;31622;55.416;37.840;2022-12-22T10:42:43;10.10;;;3.90;;
45909;SDS011;31622;55.416;37.840;2022-12-22T10:45:17;8.30;;;4.07;;
45909;SDS011;31622;55.416;37.840;2022-12-22T10:47:47;5.97;;;3.55;;
45909;SDS011;31622;55.416;37.840;2022-12-22T10:50:14;6.43;;;3.72;;
45909;SDS011;31622;55.416;37.840;2022-12-22T10:52:40;8.40;;;3.47;;
45909;SDS011;31622;55.416;37.840;2022-12-22T11:01:02;8.98;;;3.70;;
45909;SDS011;31622;55.416;37.840;2022-12-22T11:03:29;7.18;;;3.58;;
45909;SDS011;31622;55.416;37.840;2022-12-22T11:05:56;5.28;;;3.35;;
45909;SDS011;31622;55.416;37.840;2022-12-22T11:08:23;7.50;;;2.92;;
45909;SDS011;31622;55.416;37.840;2022-12-22T11:10:53;6.65;;;3.42;;
45909;SDS011;31622;55.416;37.840;2022-12-22T11:13:36;5.05;;;3.45;;
45909;SDS011;31622;55.416;37.840;2022-12-22T11:16:18;8.05;;;3.53;;
45909;SDS011;31622;55.416;37.840;2022-12-22T11:18:59;5.55;;;3.72;;
45909;SDS011;31622;55.416;37.840;2022-12-22T11:24:37;6.03;;;3.63;;
45909;SDS011;31622;55.416;37.840;2022-12-22T11:35:21;6.22;;;3.80;;
45909;SDS011;31622;55.416;37.840;2022-12-22T11:38:10;4.18;;;2.90;;
45909;SDS011;31622;55.416;37.840;2022-12-22T11:41:08;5.15;;;3.05;;
45909;SDS011;31622;55.416;37.840;2022-12-22T11:51:45;5.35;;;3.42;;
45909;SDS011;31622;55.416;37.840;2022-12-22T12:00:07;5.15;;;3.42;;
45909;SDS011;31622;55.416;37.840;2022-12-22T12:02:53;5.68;;;3.17;;
45909;SDS011;31622;55.416;37.840;2022-12-22T12:05:58;4.60;;;3.08;;
45909;SDS011;31622;55.416;37.840;2022-12-22T12:19:26;5.97;;;4.30;;
45909;SDS011;31622;55.416;37.840;2022-12-22T12:21:56;5.68;;;3.75;;
45909;SDS011;31622;55.416;37.840;2022-12-22T12:30:10;6.47;;;3.67;;
45909;SDS011;31622;55.416;37.840;2022-12-22T12:38:20;5.18;;;3.55;;
45909;SDS011;31622;55.416;37.840;2022-12-22T12:44:00;5.47;;;3.75;;
45909;SDS011;31622;55.416;37.840;2022-12-22T12:52:01;5.25;;;3.70;;
45909;SDS011;31622;55.416;37.840;2022-12-22T13:10:48;6.13;;;3.40;;
45909;SDS011;31622;55.416;37.840;2022-12-22T13:15:47;17.55;;;4.68;;
45909;SDS011;31622;55.416;37.840;2022-12-22T13:20:52;14.18;;;4.03;;
45909;SDS011;31622;55.416;37.840;2022-12-22T13:23:23;14.20;;;3.63;;
45909;SDS011;31622;55.416;37.840;2022-12-22T13:25:52;10.80;;;4.35;;
45909;SDS011;31622;55.416;37.840;2022-12-22T13:28:23;9.15;;;4.15;;
45909;SDS011;31622;55.416;37.840;2022-12-22T13:30:55;7.18;;;3.83;;
45909;SDS011;31622;55.416;37.840;2022-12-22T13:33:24;10.05;;;3.95;;
45909;SDS011;31622;55.416;37.840;2022-12-22T13:35:53;8.10;;;4.03;;
45909;SDS011;31622;55.416;37.840;2022-12-22T13:41:30;8.52;;;3.72;;
45909;SDS011;31622;55.416;37.840;2022-12-22T13:43:52;7.75;;;4.38;;
45909;SDS011;31622;55.416;37.840;2022-12-22T13:46:21;8.80;;;3.90;;
45909;SDS011;31622;55.416;37.840;2022-12-22T13:48:47;8.73;;;3.70;;
45909;SDS011;31622;55.416;37.840;2022-12-22T13:51:17;7.32;;;4.22;;
45909;SDS011;31622;55.416;37.840;2022-12-22T13:53:52;6.70;;;3.72;;
45909;SDS011;31622;55.416;37.840;2022-12-22T13:56:21;6.95;;;3.90;;
45909;SDS011;31622;55.416;37.840;2022-12-22T13:58:54;7.32;;;3.75;;
45909;SDS011;31622;55.416;37.840;2022-12-22T14:01:22;7.00;;;4.18;;
45909;SDS011;31622;55.416;37.840;2022-12-22T14:03:52;6.80;;;3.83;;
45909;SDS011;31622;55.416;37.840;2022-12-22T14:06:28;6.93;;;4.05;;
45909;SDS011;31622;55.416;37.840;2022-12-22T14:12:02;7.57;;;4.65;;
45909;SDS011;31622;55.416;37.840;2022-12-22T14:14:34;5.70;;;4.43;;
45909;SDS011;31622;55.416;37.840;2022-12-22T14:17:01;6.25;;;4.20;;
45909;SDS011;31622;55.416;37.840;2022-12-22T14:19:32;7.95;;;4.28;;
45909;SDS011;31622;55.416;37.840;2022-12-22T14:24:42;6.93;;;4.18;;
45909;SDS011;31622;55.416;37.840;2022-12-22T14:27:37;7.75;;;3.83;;
45909;SDS011;31622;55.416;37.840;2022-12-22T14:30:06;6.45;;;3.80;;
45909;SDS011;31622;55.416;37.840;2022-12-22T14:32:41;6.55;;;3.83;;
45909;SDS011;31622;55.416;37.840;2022-12-22T14:35:28;5.53;;;3.90;;
45909;SDS011;31622;55.416;37.840;2022-12-22T14:38:18;6.25;;;3.92;;
45909;SDS011;31622;55.416;37.840;2022-12-22T14:40:41;7.88;;;3.90;;
45909;SDS011;31622;55.416;37.840;2022-12-22T14:45:43;7.72;;;4.15;;
45909;SDS011;31622;55.416;37.840;2022-12-22T14:48:15;7.55;;;3.83;;
45909;SDS011;31622;55.416;37.840;2022-12-22T14:50:50;8.75;;;3.75;;
45909;SDS011;31622;55.416;37.840;2022-12-22T14:53:35;6.85;;;4.10;;
45909;SDS011;31622;55.416;37.840;2022-12-22T14:56:04;6.38;;;3.38;;
45909;SDS011;31622;55.416;37.840;2022-12-22T14:58:37;6.07;;;3.58;;
45909;SDS011;31622;55.416;37.840;2022-12-22T15:01:26;6.38;;;4.18;;
45909;SDS011;31622;55.416;37.840;2022-12-22T15:04:06;7.40;;;3.83;;
45909;SDS011;31622;55.416;37.840;2022-12-22T15:06:42;10.38;;;4.03;;
45909;SDS011;31622;55.416;37.840;2022-12-22T15:11:48;5.93;;;3.55;;
45909;SDS011;31622;55.416;37.840;2022-12-22T15:14:27;5.60;;;3.30;;
45909;SDS011;31622;55.416;37.840;2022-12-22T15:16:54;6.80;;;3.70;;
45909;SDS011;31622;55.416;37.840;2022-12-22T15:19:21;7.10;;;3.53;;
45909;SDS011;31622;55.416;37.840;2022-12-22T15:21:48;7.65;;;4.18;;
45909;SDS011;31622;55.416;37.840;2022-12-22T15:24:17;4.93;;;3.03;;
45909;SDS011;31622;55.416;37.840;2022-12-22T15:26:43;7.82;;;3.83;;
45909;SDS011;31622;55.416;37.840;2022-12-22T15:29:10;4.65;;;3.63;;
45909;SDS011;31622;55.416;37.840;2022-12-22T15:31:37;7.05;;;3.90;;
45909;SDS011;31622;55.416;37.840;2022-12-22T15:34:03;8.18;;;3.47;;
45909;SDS011;31622;55.416;37.840;2022-12-22T15:36:36;4.97;;;3.50;;
45909;SDS011;31622;55.416;37.840;2022-12-22T15:39:02;6.00;;;3.63;;
45909;SDS011;31622;55.416;37.840;2022-12-22T15:41:27;6.47;;;3.70;;
45909;SDS011;31622;55.416;37.840;2022-12-22T15:43:53;5.80;;;3.50;;
45909;SDS011;31622;55.416;37.840;2022-12-22T15:46:19;4.80;;;3.47;;
45909;SDS011;31622;55.416;37.840;2022-12-22T15:48:46;8.80;;;4.18;;
45909;SDS011;31622;55.416;37.840;2022-12-22T15:51:21;5.70;;;3.75;;
45909;SDS011;31622;55.416;37.840;2022-12-22T15:53:49;8.02;;;3.50;;
45909;SDS011;31622;55.416;37.840;2022-12-22T15:56:19;4.45;;;3.22;;
45909;SDS011;31622;55.416;37.840;2022-12-22T15:58:46;6.40;;;3.33;;
45909;SDS011;31622;55.416;37.840;2022-12-22T16:01:12;7.25;;;4.00;;
45909;SDS011;31622;55.416;37.840;2022-12-22T16:03:38;6.53;;;3.67;;
45909;SDS011;31622;55.416;37.840;2022-12-22T16:06:04;5.45;;;3.33;;
45909;SDS011;31622;55.416;37.840;2022-12-22T16:08:32;5.88;;;3.25;;
45909;SDS011;31622;55.416;37.840;2022-12-22T16:11:02;5.03;;;3.55;;
45909;SDS011;31622;55.416;37.840;2022-12-22T16:13:29;4.78;;;3.47;;
45909;SDS011;31622;55.416;37.840;2022-12-22T16:15:56;5.20;;;3.55;;
45909;SDS011;31622;55.416;37.840;2022-12-22T16:18:22;7.22;;;3.45;;
45909;SDS011;31622;55.416;37.840;2022-12-22T16:20:48;5.13;;;3.35;;
45909;SDS011;31622;55.416;37.840;2022-12-22T16:23:22;4.00;;;3.10;;
45909;SDS011;31622;55.416;37.840;2022-12-22T16:25:49;5.32;;;3.35;;
45909;SDS011;31622;55.416;37.840;2022-12-22T16:28:17;5.45;;;3.03;;
45909;SDS011;31622;55.416;37.840;2022-12-22T16:30:45;4.38;;;3.25;;
45909;SDS011;31622;55.416;37.840;2022-12-22T16:33:11;4.95;;;3.28;;
45909;SDS011;31622;55.416;37.840;2022-12-22T16:35:38;4.47;;;3.58;;
45909;SDS011;31622;55.416;37.840;2022-12-22T16:38:04;4.70;;;3.40;;
45909;SDS011;31622;55.416;37.840;2022-12-22T16:40:30;4.53;;;2.88;;
45909;SDS011;31622;55.416;37.840;2022-12-22T16:43:06;4.47;;;3.25;;
45909;SDS011;31622;55.416;37.840;2022-12-22T16:45:48;4.53;;;3.20;;
45909;SDS011;31622;55.416;37.840;2022-12-22T16:48:15;4.72;;;2.95;;
45909;SDS011;31622;55.416;37.840;2022-12-22T16:50:44;3.97;;;3.13;;
45909;SDS011;31622;55.416;37.840;2022-12-22T16:53:10;4.88;;;3.28;;
45909;SDS011;31622;55.416;37.840;2022-12-22T16:55:38;3.15;;;2.35;;
45909;SDS011;31622;55.416;37.840;2022-12-22T16:58:04;5.20;;;3.25;;
45909;SDS011;31622;55.416;37.840;2022-12-22T17:00:30;5.18;;;3.65;;
45909;SDS011;31622;55.416;37.840;2022-12-22T17:03:01;3.47;;;2.65;;
45909;SDS011;31622;55.416;37.840;2022-12-22T17:05:29;4.00;;;3.15;;
45909;SDS011;31622;55.416;37.840;2022-12-22T17:08:05;3.95;;;2.85;;
45909;SDS011;31622;55.416;37.840;2022-12-22T17:10:32;3.80;;;2.92;;
45909;SDS011;31622;55.416;37.840;2022-12-22T17:12:58;4.18;;;2.80;;
45909;SDS011;31622;55.416;37.840;2022-12-22T17:15:25;4.03;;;2.90;;
45909;SDS011;31622;55.416;37.840;2022-12-22T17:17:51;3.90;;;2.88;;
45909;SDS011;31622;55.416;37.840;2022-12-22T17:20:18;3.78;;;2.70;;